Time;durP1;ratioP1;P1;durP2;ratioP2;P2;SDS_P1;SDS_P2;PMS_P1;PMS_P2;Temp;Humidity;BMP_temperature;BMP_pressure;BME280_temperature;BME280_humidity;BME280_pressure;Samples;Min_cycle;Max_cycle;Signal;HPM_P1;HPM_P2
2022/05/20 00:09:11;;;;;;;;;;;17.70;99.90;;;;;;5041943;28;20154;-69
2022/05/20 00:11:37;;;;;;;;;;;17.60;99.90;;;;;;5043718;28;19927;-69
2022/05/20 00:14:05;;;;;;;;;;;17.60;99.90;;;;;;5042950;28;19921;-69
2022/05/20 00:16:33;;;;;;;;;;;17.60;99.90;;;;;;5042918;28;19921;-69
2022/05/20 00:19:00;;;;;;;;;;;17.60;99.90;;;;;;5042427;28;19927;-68
2022/05/20 00:21:26;;;;;;;;;;;17.60;99.90;;;;;;5043445;28;19925;-69
2022/05/20 00:23:53;;;;;;;;;;;17.60;99.90;;;;;;5042697;28;19925;-69
2022/05/20 00:26:21;;;;;;;;;;;17.70;99.90;;;;;;5041939;28;19928;-69
2022/05/20 00:28:48;;;;;;;;;;;17.70;99.90;;;;;;5043505;28;19993;-69
2022/05/20 00:31:16;;;;;;;;;;;17.70;99.90;;;;;;5043138;28;19956;-69
2022/05/20 00:33:43;;;;;;;;;;;17.70;99.90;;;;;;5043028;28;19929;-68
2022/05/20 00:36:09;;;;;;;;;;;17.70;99.90;;;;;;5042403;28;19921;-69
2022/05/20 00:38:36;;;;;;;;;;;17.60;99.90;;;;;;5043036;28;20205;-70
2022/05/20 00:41:03;;;;;;;;;;;17.60;99.90;;;;;;5042927;28;19921;-69
2022/05/20 00:43:37;;;;;;;;;;;17.60;99.90;;;;;;5042807;28;19933;-69
2022/05/20 00:46:04;;;;;;;;;;;17.60;99.90;;;;;;5042242;28;19921;-70
2022/05/20 00:48:31;;;;;;;;;;;17.70;99.90;;;;;;5042624;28;20208;-69
2022/05/20 00:51:00;;;;;;;;;;;17.60;99.90;;;;;;5043237;28;19921;-70
2022/05/20 00:53:29;;;;;;;;;;;17.60;99.90;;;;;;5042920;28;19921;-69
2022/05/20 00:55:56;;;;;;;;;;;17.60;99.90;;;;;;5042182;28;20117;-70
2022/05/20 00:58:23;;;;;;;;;;;17.60;99.90;;;;;;5042821;28;19928;-70
2022/05/20 01:00:52;;;;;;;;;;;17.60;99.90;;;;;;5042657;28;19925;-70
2022/05/20 01:03:20;;;;;;;;;;;17.60;99.90;;;;;;5043026;28;19921;-70
2022/05/20 01:05:48;;;;;;;;;;;17.50;99.90;;;;;;5042287;28;19921;-70
2022/05/20 01:08:16;;;;;;;;;;;17.50;99.90;;;;;;5040281;28;19961;-70
2022/05/20 01:10:42;;;;;;;;;;;17.50;99.90;;;;;;5042769;28;20112;-70
2022/05/20 01:13:09;;;;;;;;;;;17.50;99.90;;;;;;5042681;28;19921;-69
2022/05/20 01:15:36;;;;;;;;;;;17.50;99.90;;;;;;5042146;28;19928;-69
2022/05/20 01:18:04;;;;;;;;;;;17.50;99.90;;;;;;5042359;28;19921;-70
2022/05/20 01:20:32;;;;;;;;;;;17.40;99.90;;;;;;5042612;28;19921;-70
2022/05/20 01:23:06;;;;;;;;;;;17.40;99.90;;;;;;5042373;28;20208;-70
2022/05/20 01:25:33;;;;;;;;;;;17.40;99.90;;;;;;5043137;28;19921;-69
2022/05/20 01:28:00;;;;;;;;;;;17.30;99.90;;;;;;5046178;28;19928;-70
2022/05/20 01:30:27;;;;;;;;;;;17.40;99.90;;;;;;5046302;28;19927;-69
2022/05/20 01:32:54;;;;;;;;;;;17.30;99.90;;;;;;5046224;28;19921;-70
2022/05/20 01:35:24;;;;;;;;;;;17.30;99.90;;;;;;5045563;28;19928;-69
2022/05/20 01:37:50;;;;;;;;;;;17.30;99.90;;;;;;5046079;28;19925;-69
2022/05/20 01:40:18;;;;;;;;;;;17.30;99.90;;;;;;5045679;28;20226;-69
2022/05/20 01:42:49;;;;;;;;;;;17.30;99.90;;;;;;5046245;28;19921;-70
2022/05/20 01:45:18;;;;;;;;;;;17.20;99.90;;;;;;5045405;28;20124;-71
2022/05/20 01:47:48;;;;;;;;;;;17.10;99.90;;;;;;5046060;28;19921;-68
2022/05/20 01:50:17;;;;;;;;;;;17.10;99.90;;;;;;5045960;28;20000;-69
2022/05/20 01:52:49;;;;;;;;;;;17.10;99.90;;;;;;5045720;28;19922;-69
2022/05/20 01:55:17;;;;;;;;;;;17.10;99.90;;;;;;5045656;28;19925;-70
2022/05/20 01:57:48;;;;;;;;;;;17.10;99.90;;;;;;5045771;28;20093;-72
2022/05/20 02:00:16;;;;;;;;;;;17.10;99.90;;;;;;5046067;28;19932;-68
2022/05/20 02:02:46;;;;;;;;;;;17.10;99.90;;;;;;5045803;28;19921;-69
2022/05/20 02:05:15;;;;;;;;;;;17.00;99.90;;;;;;5045035;28;19932;-69
2022/05/20 02:07:43;;;;;;;;;;;17.00;99.90;;;;;;5051069;28;19921;-69
2022/05/20 02:10:12;;;;;;;;;;;16.90;99.90;;;;;;5065786;28;19927;-69
2022/05/20 02:12:41;;;;;;;;;;;17.00;99.90;;;;;;5065569;28;19925;-69
2022/05/20 02:15:13;;;;;;;;;;;16.90;99.90;;;;;;5065684;28;19943;-69
2022/05/20 02:17:41;;;;;;;;;;;16.90;99.90;;;;;;5064426;28;19944;-69
2022/05/20 02:20:13;;;;;;;;;;;16.90;99.90;;;;;;5065041;28;20204;-69
2022/05/20 02:22:42;;;;;;;;;;;16.90;99.90;;;;;;5065661;28;20120;-69
2022/05/20 02:25:11;;;;;;;;;;;16.90;99.90;;;;;;5065166;28;20205;-69
2022/05/20 02:27:39;;;;;;;;;;;16.90;99.90;;;;;;5065145;28;19939;-69
2022/05/20 02:30:08;;;;;;;;;;;16.90;99.90;;;;;;5065067;28;19955;-69
2022/05/20 02:32:38;;;;;;;;;;;16.90;99.90;;;;;;5065373;28;20123;-69
2022/05/20 02:35:05;;;;;;;;;;;16.90;99.90;;;;;;5065026;28;19924;-69
2022/05/20 02:37:33;;;;;;;;;;;16.90;99.90;;;;;;5064254;28;20119;-69
2022/05/20 02:40:01;;;;;;;;;;;16.90;99.90;;;;;;5065165;28;20093;-69
2022/05/20 02:42:28;;;;;;;;;;;16.90;99.90;;;;;;5065124;28;19920;-69
2022/05/20 02:44:55;;;;;;;;;;;16.90;99.90;;;;;;5064970;28;20124;-69
2022/05/20 02:47:22;;;;;;;;;;;16.90;99.90;;;;;;5064458;28;20109;-69
2022/05/20 02:49:50;;;;;;;;;;;16.90;99.90;;;;;;5064944;28;20123;-69
2022/05/20 02:52:16;;;;;;;;;;;16.90;99.90;;;;;;5064837;28;19921;-69
2022/05/20 02:54:43;;;;;;;;;;;17.00;99.90;;;;;;5064996;28;20108;-69
2022/05/20 02:57:09;;;;;;;;;;;16.90;99.90;;;;;;5064276;28;19921;-69
2022/05/20 03:05:06;;;;;;;;;;;16.80;99.90;;;;;;5054283;28;19997;-70
2022/05/20 03:07:33;;;;;;;;;;;16.90;99.90;;;;;;5049264;28;19924;-69
2022/05/20 03:10:00;;;;;;;;;;;16.80;99.90;;;;;;5058760;28;19927;-70
2022/05/20 03:12:27;;;;;;;;;;;16.80;99.90;;;;;;5054141;28;19987;-70
2022/05/20 03:17:53;;;;;;;;;;;16.70;99.90;;;;;;5022285;28;19928;-75
2022/05/20 03:20:21;;;;;;;;;;;16.70;99.90;;;;;;5053158;28;19927;-70
2022/05/20 03:22:47;;;;;;;;;;;16.80;99.90;;;;;;5063656;28;19967;-70
2022/05/20 03:25:14;;;;;;;;;;;16.70;99.90;;;;;;5063626;28;19944;-70
2022/05/20 03:27:40;;;;;;;;;;;16.70;99.90;;;;;;5064050;28;19921;-69
2022/05/20 03:30:08;;;;;;;;;;;16.70;99.90;;;;;;5064435;28;19921;-69
2022/05/20 03:32:35;;;;;;;;;;;16.70;99.90;;;;;;5063808;28;19927;-70
2022/05/20 03:35:02;;;;;;;;;;;16.70;99.90;;;;;;5064230;28;20093;-70
2022/05/20 03:37:30;;;;;;;;;;;16.70;99.90;;;;;;5063789;28;19988;-70
2022/05/20 03:39:56;;;;;;;;;;;16.70;99.90;;;;;;5064092;28;19927;-70
2022/05/20 03:42:24;;;;;;;;;;;16.70;99.90;;;;;;5063759;28;19933;-70
2022/05/20 03:44:50;;;;;;;;;;;16.70;99.90;;;;;;5063763;28;19943;-70
2022/05/20 03:47:17;;;;;;;;;;;16.70;99.90;;;;;;5063778;28;19920;-70
2022/05/20 03:49:43;;;;;;;;;;;16.60;99.90;;;;;;5063179;28;19921;-70
2022/05/20 03:52:10;;;;;;;;;;;16.60;99.90;;;;;;5061094;28;19920;-69
2022/05/20 03:54:38;;;;;;;;;;;16.60;99.90;;;;;;5063818;28;19924;-70
2022/05/20 03:57:06;;;;;;;;;;;16.60;99.90;;;;;;5063242;28;19927;-70
2022/05/20 03:59:35;;;;;;;;;;;16.60;99.90;;;;;;5053197;28;19924;-70
2022/05/20 04:02:00;;;;;;;;;;;16.60;99.90;;;;;;5063909;28;19999;-70
2022/05/20 04:04:28;;;;;;;;;;;16.60;99.90;;;;;;5063603;28;19920;-70
2022/05/20 04:06:55;;;;;;;;;;;16.60;99.90;;;;;;5059301;28;19921;-70
2022/05/20 04:09:22;;;;;;;;;;;16.60;99.90;;;;;;5043857;28;19928;-70
2022/05/20 04:11:53;;;;;;;;;;;16.60;99.90;;;;;;5043593;28;19925;-70
2022/05/20 04:14:19;;;;;;;;;;;16.60;99.90;;;;;;5043222;28;19928;-69
2022/05/20 04:16:46;;;;;;;;;;;16.70;99.90;;;;;;5042471;28;19921;-70
2022/05/20 04:19:13;;;;;;;;;;;16.70;99.90;;;;;;5043366;28;19921;-70
2022/05/20 04:21:41;;;;;;;;;;;16.70;99.90;;;;;;5043155;28;19927;-69
2022/05/20 04:24:08;;;;;;;;;;;16.70;99.90;;;;;;5042690;28;19925;-70
2022/05/20 04:26:34;;;;;;;;;;;16.70;99.90;;;;;;5042595;28;19928;-69
2022/05/20 04:29:02;;;;;;;;;;;16.70;99.90;;;;;;5042694;28;19921;-70
2022/05/20 04:31:29;;;;;;;;;;;16.70;99.90;;;;;;5043011;28;20132;-70
2022/05/20 04:33:55;;;;;;;;;;;16.70;99.90;;;;;;5043121;28;20101;-70
2022/05/20 04:36:22;;;;;;;;;;;16.80;99.90;;;;;;5042502;28;19921;-70
2022/05/20 04:38:48;;;;;;;;;;;16.80;99.90;;;;;;5043195;28;19921;-70
2022/05/20 04:47:00;;;;;;;;;;;16.80;99.90;;;;;;5042518;28;19982;-70
2022/05/20 04:49:28;;;;;;;;;;;16.90;99.90;;;;;;5042690;28;19988;-70
2022/05/20 04:51:55;;;;;;;;;;;16.80;99.90;;;;;;5039991;28;20098;-69
2022/05/20 04:57:07;;;;;;;;;;;16.90;99.90;;;;;;5042405;28;19959;-70
2022/05/20 04:59:37;;;;;;;;;;;16.90;99.90;;;;;;5043714;28;19932;-69
2022/05/20 05:02:05;;;;;;;;;;;16.90;99.90;;;;;;5046766;28;19961;-69
2022/05/20 05:04:32;;;;;;;;;;;17.00;99.90;;;;;;5040290;28;20001;-69
2022/05/20 05:06:58;;;;;;;;;;;17.00;99.90;;;;;;5033770;28;19936;-68
2022/05/20 05:09:25;;;;;;;;;;;17.10;99.90;;;;;;5038876;28;19922;-69
2022/05/20 05:11:52;;;;;;;;;;;17.20;99.90;;;;;;5036215;28;20000;-69
2022/05/20 05:14:19;;;;;;;;;;;17.20;99.90;;;;;;5044665;28;19924;-68
2022/05/20 05:16:46;;;;;;;;;;;17.20;99.90;;;;;;5047182;28;19921;-66
2022/05/20 05:19:14;;;;;;;;;;;17.20;99.90;;;;;;5047596;28;19929;-67
2022/05/20 05:21:40;;;;;;;;;;;17.30;99.90;;;;;;5046766;28;19921;-67
2022/05/20 05:24:07;;;;;;;;;;;17.40;99.90;;;;;;5045707;28;19928;-68
2022/05/20 05:26:35;;;;;;;;;;;17.50;99.90;;;;;;5045977;28;19921;-67
2022/05/20 05:29:03;;;;;;;;;;;17.60;99.90;;;;;;5043995;28;20224;-67
2022/05/20 05:31:29;;;;;;;;;;;17.70;99.90;;;;;;5046645;28;19921;-67
2022/05/20 05:33:56;;;;;;;;;;;17.80;99.90;;;;;;5046383;28;19921;-67
2022/05/20 05:36:24;;;;;;;;;;;17.80;99.90;;;;;;5045972;28;19928;-67
2022/05/20 05:38:51;;;;;;;;;;;17.90;99.90;;;;;;5046366;28;19927;-68
2022/05/20 05:41:19;;;;;;;;;;;18.10;99.90;;;;;;5045944;28;19921;-70
2022/05/20 05:43:46;;;;;;;;;;;18.10;99.90;;;;;;5042710;28;20205;-68
2022/05/20 05:46:13;;;;;;;;;;;18.20;99.90;;;;;;5045165;28;19936;-68
2022/05/20 05:48:39;;;;;;;;;;;18.30;99.90;;;;;;5044805;28;20216;-69
2022/05/20 05:51:06;;;;;;;;;;;18.40;99.90;;;;;;5046092;28;19929;-68
2022/05/20 05:53:34;;;;;;;;;;;18.40;99.90;;;;;;5043076;28;19929;-68
2022/05/20 05:56:01;;;;;;;;;;;18.50;99.90;;;;;;5060693;23;19922;-68
2022/05/20 05:58:29;;;;;;;;;;;18.60;99.90;;;;;;5061519;28;19983;-67
2022/05/20 06:00:56;;;;;;;;;;;18.60;99.90;;;;;;5066139;28;20250;-67
2022/05/20 06:03:23;;;;;;;;;;;18.60;99.90;;;;;;5066033;28;19921;-67
2022/05/20 06:05:50;;;;;;;;;;;18.60;99.90;;;;;;5065390;28;19927;-68
2022/05/20 06:08:17;;;;;;;;;;;18.60;99.90;;;;;;5064160;28;19927;-68
2022/05/20 06:10:45;;;;;;;;;;;18.70;99.90;;;;;;5065066;28;19921;-67
2022/05/20 06:13:12;;;;;;;;;;;18.70;99.90;;;;;;5045679;28;19921;-67
2022/05/20 06:15:39;;;;;;;;;;;18.70;99.90;;;;;;5056814;28;20204;-67
2022/05/20 06:18:06;;;;;;;;;;;18.80;99.90;;;;;;5063409;28;20207;-67
2022/05/20 06:20:33;;;;;;;;;;;18.80;99.90;;;;;;5065775;28;20226;-68
2022/05/20 06:23:01;;;;;;;;;;;18.90;99.90;;;;;;5065005;28;20154;-67
2022/05/20 06:25:28;;;;;;;;;;;19.00;99.90;;;;;;5064530;28;19921;-67
2022/05/20 06:28:03;;;;;;;;;;;19.10;99.90;;;;;;5065000;28;20123;-67
2022/05/20 06:30:30;;;;;;;;;;;19.10;99.90;;;;;;5065036;28;20111;-67
2022/05/20 06:32:56;;;;;;;;;;;19.10;99.90;;;;;;5065528;28;19943;-68
2022/05/20 06:40:52;;;;;;;;;;;19.20;99.90;;;;;;5065371;28;19923;-68
2022/05/20 06:43:20;;;;;;;;;;;19.20;99.90;;;;;;5064934;28;19925;-67
2022/05/20 06:45:48;;;;;;;;;;;19.30;99.90;;;;;;5064271;28;19927;-67
2022/05/20 06:48:15;;;;;;;;;;;19.30;99.90;;;;;;5064354;28;19947;-67
2022/05/20 06:50:42;;;;;;;;;;;19.30;99.90;;;;;;5064665;28;20135;-68
2022/05/20 06:53:09;;;;;;;;;;;19.30;99.90;;;;;;5064785;28;19921;-68
2022/05/20 06:55:37;;;;;;;;;;;19.40;99.90;;;;;;5063724;28;19928;-67
2022/05/20 06:58:04;;;;;;;;;;;19.50;99.90;;;;;;5082171;28;19920;-67
2022/05/20 07:00:32;;;;;;;;;;;19.50;99.90;;;;;;5084796;28;19924;-68
2022/05/20 07:02:58;;;;;;;;;;;19.60;99.90;;;;;;5084798;28;19920;-68
2022/05/20 07:05:27;;;;;;;;;;;19.70;99.90;;;;;;5083719;28;20126;-67
2022/05/20 07:07:53;;;;;;;;;;;19.80;99.90;;;;;;5084571;28;19958;-67
2022/05/20 07:10:20;;;;;;;;;;;19.90;99.90;;;;;;5084713;28;19935;-68
2022/05/20 07:12:46;;;;;;;;;;;20.10;99.90;;;;;;5084620;28;19920;-67
2022/05/20 07:15:13;;;;;;;;;;;20.20;99.90;;;;;;5077703;28;19927;-67
2022/05/20 07:17:42;;;;;;;;;;;20.20;99.90;;;;;;5078485;28;19921;-68
2022/05/20 07:20:10;;;;;;;;;;;20.30;99.90;;;;;;5084964;28;19924;-68
2022/05/20 07:22:37;;;;;;;;;;;20.40;99.90;;;;;;5083681;28;19921;-67
2022/05/20 07:25:04;;;;;;;;;;;20.50;99.90;;;;;;5083989;28;19924;-67
2022/05/20 07:27:31;;;;;;;;;;;20.60;99.90;;;;;;5083187;28;19921;-68
2022/05/20 07:29:57;;;;;;;;;;;20.70;99.90;;;;;;5084169;28;19920;-67
2022/05/20 07:32:24;;;;;;;;;;;20.70;99.90;;;;;;5084194;28;19920;-68
2022/05/20 07:34:52;;;;;;;;;;;20.90;99.90;;;;;;5084129;28;19920;-67
2022/05/20 07:37:18;;;;;;;;;;;21.00;99.90;;;;;;5083117;28;19921;-68
2022/05/20 07:39:45;;;;;;;;;;;21.00;99.90;;;;;;5083734;28;19920;-68
2022/05/20 07:42:13;;;;;;;;;;;21.10;99.90;;;;;;5084384;28;19929;-68
2022/05/20 07:44:41;;;;;;;;;;;21.20;99.90;;;;;;5083634;28;20175;-67
2022/05/20 07:47:08;;;;;;;;;;;21.20;99.90;;;;;;5082969;28;20111;-67
2022/05/20 07:49:34;;;;;;;;;;;21.30;99.90;;;;;;5083585;28;19926;-68
2022/05/20 07:52:03;;;;;;;;;;;21.40;99.90;;;;;;5082596;28;19920;-67
2022/05/20 07:54:32;;;;;;;;;;;21.50;99.90;;;;;;5082246;28;19921;-68
2022/05/20 07:57:01;;;;;;;;;;;21.50;99.90;;;;;;5082274;28;19942;-67
2022/05/20 07:59:30;;;;;;;;;;;21.50;99.90;;;;;;5083655;28;19973;-68
2022/05/20 08:01:57;;;;;;;;;;;21.60;99.90;;;;;;5083257;28;19927;-67
2022/05/20 08:07:11;;;;;;;;;;;21.70;99.90;;;;;;5076411;28;19942;-67
2022/05/20 08:09:37;;;;;;;;;;;21.80;99.90;;;;;;5083666;28;19987;-68
2022/05/20 08:12:04;;;;;;;;;;;21.80;99.90;;;;;;5083481;28;19921;-67
2022/05/20 08:14:31;;;;;;;;;;;21.90;99.90;;;;;;5083453;28;19924;-67
2022/05/20 08:16:58;;;;;;;;;;;22.00;99.90;;;;;;5082665;28;19920;-68
2022/05/20 08:19:24;;;;;;;;;;;22.10;99.90;;;;;;5081898;28;20211;-66
2022/05/20 08:21:51;;;;;;;;;;;22.20;99.90;;;;;;5082552;28;19958;-67
2022/05/20 08:24:19;;;;;;;;;;;22.20;99.90;;;;;;5083147;28;19987;-67
2022/05/20 08:26:46;;;;;;;;;;;22.30;99.90;;;;;;5080770;28;19996;-67
2022/05/20 08:29:13;;;;;;;;;;;22.40;99.90;;;;;;5083258;28;20124;-67
2022/05/20 08:31:40;;;;;;;;;;;22.60;99.90;;;;;;5083036;28;19920;-67
2022/05/20 08:34:07;;;;;;;;;;;22.70;99.90;;;;;;5082650;28;19987;-67
2022/05/20 08:36:35;;;;;;;;;;;22.80;99.90;;;;;;5082589;28;19921;-67
2022/05/20 08:39:02;;;;;;;;;;;23.00;99.90;;;;;;5083198;28;19927;-67
2022/05/20 08:41:33;;;;;;;;;;;23.00;99.90;;;;;;5083434;28;20111;-68
2022/05/20 08:44:00;;;;;;;;;;;23.20;99.90;;;;;;5083307;28;19921;-67
2022/05/20 08:46:27;;;;;;;;;;;23.30;99.90;;;;;;5082298;28;20219;-67
2022/05/20 08:48:54;;;;;;;;;;;23.30;99.90;;;;;;5082188;28;20100;-67
2022/05/20 08:51:22;;;;;;;;;;;23.40;99.90;;;;;;5081823;28;19983;-68
2022/05/20 08:53:49;;;;;;;;;;;23.40;99.90;;;;;;5082263;28;19924;-67
2022/05/20 08:56:18;;;;;;;;;;;23.50;99.90;;;;;;5082331;28;19920;-68
2022/05/20 08:58:49;;;;;;;;;;;23.60;99.90;;;;;;5083191;28;20009;-68
2022/05/20 09:01:16;;;;;;;;;;;23.80;99.90;;;;;;5081960;28;19928;-67
2022/05/20 09:03:43;;;;;;;;;;;23.80;99.90;;;;;;5078111;28;19920;-68
2022/05/20 09:06:11;;;;;;;;;;;23.90;99.90;;;;;;5082336;28;19982;-67
2022/05/20 09:08:38;;;;;;;;;;;24.00;99.90;;;;;;5083135;28;19920;-68
2022/05/20 09:11:05;;;;;;;;;;;24.10;99.90;;;;;;5080216;28;20207;-67
2022/05/20 09:16:19;;;;;;;;;;;24.30;99.90;;;;;;5081276;28;20273;-67
2022/05/20 09:18:47;;;;;;;;;;;24.40;99.90;;;;;;5083122;28;19935;-67
2022/05/20 09:21:24;;;;;;;;;;;24.50;99.90;;;;;;5083795;28;19948;-67
2022/05/20 09:23:52;;;;;;;;;;;24.60;99.90;;;;;;5081471;28;19928;-67
2022/05/20 09:26:22;;;;;;;;;;;24.70;99.90;;;;;;5082195;28;19921;-67
2022/05/20 09:28:52;;;;;;;;;;;24.80;99.90;;;;;;5083213;28;20093;-67
2022/05/20 09:31:23;;;;;;;;;;;24.90;99.90;;;;;;5082915;28;20200;-67
2022/05/20 09:33:51;;;;;;;;;;;25.00;99.90;;;;;;5082875;28;19920;-67
2022/05/20 09:36:39;;;;;;;;;;;25.00;99.90;;;;;;5082139;28;20215;-67
2022/05/20 09:39:09;;;;;;;;;;;25.10;99.90;;;;;;5077931;28;19927;-67
2022/05/20 09:41:44;;;;;;;;;;;25.20;99.90;;;;;;5082614;28;19921;-68
2022/05/20 09:44:11;;;;;;;;;;;25.20;99.90;;;;;;5082289;28;19920;-67
2022/05/20 09:46:48;;;;;;;;;;;25.20;99.90;;;;;;5082758;28;19920;-67
2022/05/20 09:49:16;;;;;;;;;;;25.30;99.90;;;;;;5086495;28;19947;-68
2022/05/20 09:51:47;;;;;;;;;;;25.40;99.90;;;;;;5086795;28;19978;-67
2022/05/20 09:54:16;;;;;;;;;;;25.50;99.90;;;;;;5086100;28;19935;-67
2022/05/20 09:56:45;;;;;;;;;;;25.60;99.90;;;;;;5085468;28;20092;-68
2022/05/20 09:59:26;;;;;;;;;;;25.70;99.90;;;;;;5085845;28;20275;-67
2022/05/20 10:01:57;;;;;;;;;;;25.80;99.90;;;;;;5086055;28;19920;-66
2022/05/20 10:04:28;;;;;;;;;;;26.00;99.90;;;;;;5084201;28;19926;-68
2022/05/20 10:06:57;;;;;;;;;;;26.00;99.90;;;;;;5081494;28;19928;-64
2022/05/20 10:09:28;;;;;;;;;;;26.10;99.90;;;;;;5083749;28;19928;-64
2022/05/20 10:11:58;;;;;;;;;;;26.20;99.90;;;;;;5078507;28;19966;-64
2022/05/20 10:14:27;;;;;;;;;;;26.40;99.90;;;;;;5079684;28;19927;-64
2022/05/20 10:16:57;;;;;;;;;;;26.60;99.90;;;;;;5081970;28;19927;-65
2022/05/20 10:19:27;;;;;;;;;;;26.70;99.90;;;;;;5076599;28;19927;-65
2022/05/20 10:21:57;;;;;;;;;;;26.70;99.90;;;;;;5083182;28;19925;-65
2022/05/20 10:24:37;;;;;;;;;;;26.70;99.90;;;;;;5081487;28;19927;-64
2022/05/20 10:27:05;;;;;;;;;;;26.80;99.90;;;;;;5082685;28;19995;-65
2022/05/20 10:32:37;;;;;;;;;;;27.00;99.90;;;;;;5080998;28;20238;-64
2022/05/20 10:35:06;;;;;;;;;;;27.30;99.90;;;;;;5077756;28;19920;-64
2022/05/20 10:37:39;;;;;;;;;;;27.40;99.90;;;;;;5084314;28;19920;-65
2022/05/20 10:40:23;;;;;;;;;;;27.60;99.90;;;;;;5085095;28;19928;-64
2022/05/20 10:42:59;;;;;;;;;;;27.60;99.90;;;;;;5083350;28;19943;-64
2022/05/20 10:48:38;;;;;;;;;;;27.80;99.90;;;;;;5067595;28;19943;-66
2022/05/20 10:51:17;;;;;;;;;;;27.90;99.90;;;;;;5085522;28;19921;-63
2022/05/20 10:53:51;;;;;;;;;;;28.00;99.90;;;;;;5085107;28;20003;-64
2022/05/20 10:56:30;;;;;;;;;;;28.10;99.90;;;;;;5075097;28;19925;-64
2022/05/20 10:59:05;;;;;;;;;;;28.30;99.90;;;;;;5065548;28;19967;-64
2022/05/20 11:01:40;;;;;;;;;;;28.30;99.90;;;;;;5065159;28;19928;-64
2022/05/20 11:04:22;;;;;;;;;;;28.40;99.90;;;;;;5078554;28;19920;-65
2022/05/20 11:07:22;;;;;;;;;;;28.60;99.90;;;;;;5083866;28;20123;-64
2022/05/20 11:09:57;;;;;;;;;;;28.70;99.90;;;;;;4997306;28;19922;-65
2022/05/20 11:12:28;;;;;;;;;;;29.00;99.90;;;;;;4999198;28;20161;-64
2022/05/20 11:15:12;;;;;;;;;;;29.10;99.90;;;;;;5032452;28;19927;-64
2022/05/20 11:17:51;;;;;;;;;;;29.10;99.90;;;;;;5084442;28;19959;-64
2022/05/20 11:20:22;;;;;;;;;;;29.20;99.90;;;;;;5084176;28;19979;-64
2022/05/20 11:23:03;;;;;;;;;;;29.20;99.90;;;;;;5078265;28;19928;-64
2022/05/20 11:25:45;;;;;;;;;;;29.30;99.90;;;;;;5079307;28;19951;-64
2022/05/20 11:28:19;;;;;;;;;;;29.50;99.90;;;;;;5083315;28;20216;-65
2022/05/20 11:30:56;;;;;;;;;;;29.40;99.90;;;;;;5076354;28;19921;-64
2022/05/20 11:33:34;;;;;;;;;;;29.50;99.90;;;;;;5083548;28;19921;-65
2022/05/20 11:36:07;;;;;;;;;;;29.70;99.90;;;;;;5083529;28;19920;-65
2022/05/20 11:38:49;;;;;;;;;;;29.80;99.90;;;;;;5076741;28;19928;-65
2022/05/20 11:41:25;;;;;;;;;;;29.90;99.90;;;;;;5064787;28;19927;-65
2022/05/20 11:44:03;;;;;;;;;;;30.10;99.90;;;;;;5078098;28;19926;-65
2022/05/20 11:46:37;;;;;;;;;;;30.20;99.90;;;;;;5063512;28;19921;-65
2022/05/20 11:49:11;;;;;;;;;;;30.10;99.90;;;;;;5077175;28;19920;-65
2022/05/20 11:52:01;;;;;;;;;;;30.30;99.90;;;;;;5082706;28;19943;-65
2022/05/20 11:54:31;;;;;;;;;;;30.40;99.90;;;;;;5084135;28;19920;-65
2022/05/20 11:57:02;;;;;;;;;;;30.60;99.90;;;;;;5080717;28;19952;-64
2022/05/20 11:59:30;;;;;;;;;;;30.60;99.90;;;;;;5083523;28;19927;-64
2022/05/20 12:01:58;;;;;;;;;;;30.60;99.90;;;;;;5083828;28;19924;-64
2022/05/20 12:04:27;;;;;;;;;;;30.50;99.70;;;;;;5082932;28;19943;-65
2022/05/20 12:06:55;;;;;;;;;;;30.60;99.70;;;;;;5082817;28;20266;-64
2022/05/20 12:09:27;;;;;;;;;;;30.70;99.10;;;;;;5077105;28;19928;-64
2022/05/20 12:12:09;;;;;;;;;;;30.70;99.40;;;;;;5081012;28;19927;-65
2022/05/20 12:17:31;;;;;;;;;;;30.70;98.20;;;;;;5106432;27;19944;-65
2022/05/20 12:25:34;;;;;;;;;;;30.80;99.90;;;;;;5089818;28;19923;-65
2022/05/20 12:28:05;;;;;;;;;;;31.20;98.40;;;;;;5117975;28;19978;-65
2022/05/20 12:30:37;;;;;;;;;;;31.30;98.60;;;;;;5119223;28;19934;-64
2022/05/20 12:33:19;;;;;;;;;;;31.60;97.80;;;;;;5121288;28;19973;-66
2022/05/20 12:36:03;;;;;;;;;;;31.80;98.40;;;;;;5120950;28;20142;-66
2022/05/20 12:38:30;;;;;;;;;;;32.10;97.40;;;;;;5091149;28;19943;-66
2022/05/20 12:41:12;;;;;;;;;;;32.10;97.30;;;;;;5120817;28;19927;-66
2022/05/20 12:43:51;;;;;;;;;;;32.10;96.50;;;;;;5101566;28;20111;-66
2022/05/20 12:46:22;;;;;;;;;;;32.10;96.00;;;;;;5099259;28;19939;-66
2022/05/20 12:48:52;;;;;;;;;;;32.10;96.10;;;;;;5097888;28;19927;-66
2022/05/20 12:51:18;;;;;;;;;;;32.20;97.30;;;;;;5087791;28;19927;-66
2022/05/20 12:53:45;;;;;;;;;;;32.40;95.30;;;;;;5080269;28;19921;-66
2022/05/20 12:56:25;;;;;;;;;;;32.50;95.90;;;;;;5091607;28;19928;-66
2022/05/20 12:58:51;;;;;;;;;;;32.60;95.20;;;;;;5109443;28;19943;-66
2022/05/20 13:01:18;;;;;;;;;;;32.60;95.70;;;;;;5100587;28;19926;-65
2022/05/20 13:03:46;;;;;;;;;;;32.60;95.00;;;;;;5107163;28;19928;-66
2022/05/20 13:06:16;;;;;;;;;;;32.70;95.70;;;;;;5120234;28;19942;-66
2022/05/20 13:08:45;;;;;;;;;;;32.70;95.70;;;;;;5120261;28;20211;-65
2022/05/20 13:11:13;;;;;;;;;;;32.70;94.90;;;;;;5114579;28;19920;-68
2022/05/20 13:13:40;;;;;;;;;;;32.80;94.10;;;;;;5110596;28;19935;-66
2022/05/20 13:16:08;;;;;;;;;;;32.60;94.60;;;;;;5114042;28;20085;-66
2022/05/20 13:18:37;;;;;;;;;;;32.80;94.20;;;;;;5120153;28;19927;-66
2022/05/20 13:21:06;;;;;;;;;;;32.70;94.30;;;;;;5120227;28;19924;-66
2022/05/20 13:23:35;;;;;;;;;;;32.70;93.70;;;;;;5125530;28;19926;-66
2022/05/20 13:26:02;;;;;;;;;;;32.70;93.70;;;;;;5138263;27;19927;-66
2022/05/20 13:28:30;;;;;;;;;;;32.80;94.40;;;;;;5129292;28;19926;-66
2022/05/20 13:31:04;;;;;;;;;;;33.10;94.20;;;;;;5127168;28;19919;-67
2022/05/20 13:33:30;;;;;;;;;;;33.30;94.80;;;;;;5126911;28;19924;-66
2022/05/20 13:35:57;;;;;;;;;;;33.60;94.40;;;;;;5126586;28;19926;-66
2022/05/20 13:38:27;;;;;;;;;;;33.70;94.10;;;;;;5126690;28;20234;-66
2022/05/20 13:40:55;;;;;;;;;;;33.60;93.10;;;;;;5127007;28;19926;-66
2022/05/20 13:43:23;;;;;;;;;;;33.50;93.30;;;;;;5126857;28;19919;-66
2022/05/20 13:51:22;;;;;;;;;;;33.50;92.00;;;;;;5085008;28;19984;-66
2022/05/20 13:53:50;;;;;;;;;;;33.20;91.90;;;;;;5105239;28;19920;-66
2022/05/20 13:56:18;;;;;;;;;;;32.90;92.70;;;;;;5126189;28;19926;-66
2022/05/20 13:58:45;;;;;;;;;;;32.90;91.90;;;;;;5126094;28;20084;-66
2022/05/20 14:01:14;;;;;;;;;;;32.90;92.30;;;;;;5126513;28;19920;-67
2022/05/20 14:03:43;;;;;;;;;;;33.10;91.30;;;;;;5118750;28;19920;-69
2022/05/20 14:06:13;;;;;;;;;;;33.20;91.20;;;;;;5105619;28;20092;-66
2022/05/20 14:08:42;;;;;;;;;;;33.30;91.80;;;;;;5105925;28;19920;-68
2022/05/20 14:11:12;;;;;;;;;;;33.20;91.80;;;;;;5105500;28;19935;-68
2022/05/20 14:13:42;;;;;;;;;;;33.50;92.60;;;;;;5116479;28;20210;-69
2022/05/20 14:16:11;;;;;;;;;;;33.70;92.60;;;;;;5125676;28;19990;-68
2022/05/20 14:18:39;;;;;;;;;;;33.80;92.40;;;;;;5126364;28;19926;-68
2022/05/20 14:21:07;;;;;;;;;;;33.60;90.20;;;;;;5126155;28;19927;-68
2022/05/20 14:23:36;;;;;;;;;;;33.40;90.60;;;;;;5126225;28;19986;-69
2022/05/20 14:26:04;;;;;;;;;;;33.50;91.70;;;;;;5125583;28;19920;-68
2022/05/20 14:28:43;;;;;;;;;;;33.30;91.90;;;;;;5125687;28;19919;-68
2022/05/20 14:31:15;;;;;;;;;;;33.20;93.20;;;;;;5126008;28;19927;-68
2022/05/20 14:33:44;;;;;;;;;;;33.40;93.10;;;;;;5125941;28;19919;-67
2022/05/20 14:36:13;;;;;;;;;;;33.20;92.60;;;;;;5125173;28;19927;-68
2022/05/20 14:38:41;;;;;;;;;;;33.30;93.80;;;;;;5125192;28;19920;-68
2022/05/20 14:41:10;;;;;;;;;;;33.60;93.70;;;;;;5125408;28;19965;-67
2022/05/20 14:43:38;;;;;;;;;;;33.90;94.00;;;;;;5115587;28;19966;-68
2022/05/20 14:46:07;;;;;;;;;;;34.10;94.00;;;;;;5104565;28;20234;-68
2022/05/20 14:48:36;;;;;;;;;;;34.10;91.70;;;;;;5105128;28;19926;-68
2022/05/20 14:51:03;;;;;;;;;;;33.80;92.80;;;;;;5104889;28;20215;-68
2022/05/20 14:53:38;;;;;;;;;;;33.60;92.70;;;;;;5122192;28;19920;-69
2022/05/20 14:56:05;;;;;;;;;;;33.10;93.40;;;;;;5124976;28;20145;-68
2022/05/20 14:58:32;;;;;;;;;;;32.90;93.80;;;;;;5124472;28;20127;-68
2022/05/20 15:01:00;;;;;;;;;;;32.80;94.10;;;;;;5125350;28;19920;-68
2022/05/20 15:03:30;;;;;;;;;;;32.80;94.50;;;;;;5125402;28;19920;-67
2022/05/20 15:05:57;;;;;;;;;;;32.80;95.40;;;;;;5124611;28;20212;-68
2022/05/20 15:08:25;;;;;;;;;;;32.80;94.60;;;;;;5125210;28;19927;-68
2022/05/20 15:10:58;;;;;;;;;;;32.80;95.40;;;;;;5108187;28;19920;-68
2022/05/20 15:13:25;;;;;;;;;;;33.10;94.30;;;;;;5109378;28;19958;-71
2022/05/20 15:15:51;;;;;;;;;;;32.90;94.50;;;;;;5122840;28;19955;-68
2022/05/20 15:18:18;;;;;;;;;;;32.80;94.00;;;;;;5104704;28;19971;-68
2022/05/20 15:20:52;;;;;;;;;;;32.70;94.80;;;;;;5104432;28;20123;-68
2022/05/20 15:23:19;;;;;;;;;;;32.60;94.30;;;;;;5104606;28;19926;-68